Time;durP1;ratioP1;P1;durP2;ratioP2;P2;SDS_P1;SDS_P2;PMS_P1;PMS_P2;Temp;Humidity;BMP_temperature;BMP_pressure;BME280_temperature;BME280_humidity;BME280_pressure;Samples;Min_cycle;Max_cycle;Signal;HPM_P1;HPM_P2
2023/01/10 00:00:42;;;;;;;;;;;16.00;54.80;;;;;;5097915;28;19926;-66
2023/01/10 00:03:09;;;;;;;;;;;15.90;54.80;;;;;;5116145;28;20016;-66
2023/01/10 00:05:35;;;;;;;;;;;15.90;54.90;;;;;;5097818;28;19996;-66
2023/01/10 00:08:01;;;;;;;;;;;16.00;55.00;;;;;;5116123;28;19926;-66
2023/01/10 00:10:27;;;;;;;;;;;15.90;54.90;;;;;;5115722;28;19976;-65
2023/01/10 00:13:24;;;;;;;;;;;15.90;55.00;;;;;;5115830;28;19924;-66
2023/01/10 00:15:38;;;;;;;;;;;15.90;55.00;;;;;;5115668;28;19919;-66
2023/01/10 00:18:03;;;;;;;;;;;15.90;55.10;;;;;;5097539;28;19927;-66
2023/01/10 00:20:32;;;;;;;;;;;15.90;55.10;;;;;;5115932;28;19926;-66
2023/01/10 00:22:58;;;;;;;;;;;15.80;55.10;;;;;;5097785;28;20351;-66
2023/01/10 00:25:24;;;;;;;;;;;15.80;55.10;;;;;;5097770;28;19959;-66
2023/01/10 00:27:58;;;;;;;;;;;15.80;55.10;;;;;;5116024;28;19927;-66
2023/01/10 00:30:24;;;;;;;;;;;15.80;55.10;;;;;;5102085;28;19955;-66
2023/01/10 00:32:50;;;;;;;;;;;16.00;55.10;;;;;;5095331;28;19926;-66
2023/01/10 00:35:15;;;;;;;;;;;16.20;54.90;;;;;;5094934;28;19924;-69
2023/01/10 00:37:41;;;;;;;;;;;16.40;54.40;;;;;;5095156;28;19927;-66
2023/01/10 00:40:08;;;;;;;;;;;16.80;53.60;;;;;;5095008;28;19924;-66
2023/01/10 00:45:21;;;;;;;;;;;17.60;52.00;;;;;;5094659;28;19965;-68
2023/01/10 00:47:47;;;;;;;;;;;18.20;50.90;;;;;;5094815;28;20265;-66
2023/01/10 00:50:13;;;;;;;;;;;18.90;49.60;;;;;;5094700;28;19969;-66
2023/01/10 00:52:38;;;;;;;;;;;19.50;48.50;;;;;;5094754;28;19927;-69
2023/01/10 00:55:04;;;;;;;;;;;20.10;47.00;;;;;;5076468;28;20291;-66
2023/01/10 00:57:29;;;;;;;;;;;20.80;45.90;;;;;;5076665;28;19920;-66
2023/01/10 00:59:55;;;;;;;;;;;21.30;44.70;;;;;;5094555;28;19927;-66
2023/01/10 01:02:21;;;;;;;;;;;21.70;43.80;;;;;;5076498;28;19947;-66
2023/01/10 01:04:46;;;;;;;;;;;22.00;43.90;;;;;;5076640;28;19919;-69
2023/01/10 01:07:12;;;;;;;;;;;22.20;42.20;;;;;;5076375;28;19963;-66
2023/01/10 01:10:25;;;;;;;;;;;22.50;42.00;;;;;;5072675;28;19959;-66
2023/01/10 01:12:23;;;;;;;;;;;22.60;41.60;;;;;;5072753;28;19931;-66
2023/01/10 01:14:48;;;;;;;;;;;22.80;41.20;;;;;;5074272;28;19920;-66
2023/01/10 01:17:14;;;;;;;;;;;22.90;41.10;;;;;;5074222;28;19974;-66
2023/01/10 01:19:40;;;;;;;;;;;23.00;40.80;;;;;;5073127;28;19924;-69
2023/01/10 01:22:05;;;;;;;;;;;23.10;40.60;;;;;;5072753;28;20372;-66
2023/01/10 01:24:31;;;;;;;;;;;23.10;40.50;;;;;;5072968;28;19925;-69
2023/01/10 01:26:56;;;;;;;;;;;23.00;40.60;;;;;;5074107;28;20299;-66
2023/01/10 01:29:23;;;;;;;;;;;22.90;40.50;;;;;;5072498;28;20376;-66
2023/01/10 01:31:49;;;;;;;;;;;22.80;40.70;;;;;;5073734;28;19945;-66
2023/01/10 01:34:14;;;;;;;;;;;22.60;40.80;;;;;;5073786;28;19928;-66
2023/01/10 01:36:40;;;;;;;;;;;22.60;41.10;;;;;;5073686;28;19921;-69
2023/01/10 01:39:05;;;;;;;;;;;22.40;41.20;;;;;;5073668;28;19971;-69
2023/01/10 01:42:02;;;;;;;;;;;22.30;41.50;;;;;;5073691;28;20372;-66
2023/01/10 01:44:18;;;;;;;;;;;22.10;41.70;;;;;;5072457;28;19920;-69
2023/01/10 01:46:45;;;;;;;;;;;21.90;41.80;;;;;;5072470;28;20022;-66
2023/01/10 01:49:14;;;;;;;;;;;21.90;42.10;;;;;;5072236;28;20008;-66
2023/01/10 01:51:40;;;;;;;;;;;21.60;42.30;;;;;;5073198;28;19920;-66
2023/01/10 01:54:07;;;;;;;;;;;21.50;42.50;;;;;;5072562;28;19928;-66
2023/01/10 01:56:36;;;;;;;;;;;21.40;42.70;;;;;;5073469;28;19975;-69
2023/01/10 01:59:05;;;;;;;;;;;21.40;42.80;;;;;;5072318;28;19920;-66
2023/01/10 02:01:32;;;;;;;;;;;21.30;42.90;;;;;;5072091;28;19926;-69
2023/01/10 02:04:02;;;;;;;;;;;21.30;42.90;;;;;;5072222;28;19966;-66
2023/01/10 02:06:27;;;;;;;;;;;21.20;42.90;;;;;;5073093;28;20322;-69
2023/01/10 02:08:59;;;;;;;;;;;21.30;42.90;;;;;;5071785;28;19921;-66
2023/01/10 02:11:25;;;;;;;;;;;21.30;42.90;;;;;;5071529;28;20450;-66
2023/01/10 02:13:50;;;;;;;;;;;21.40;42.80;;;;;;5071446;28;19920;-66
2023/01/10 02:16:16;;;;;;;;;;;21.40;42.50;;;;;;5073011;28;20174;-66
2023/01/10 02:18:42;;;;;;;;;;;21.50;42.50;;;;;;5072876;28;19928;-66
2023/01/10 02:21:15;;;;;;;;;;;21.60;42.40;;;;;;5071891;28;19924;-66
2023/01/10 02:24:01;;;;;;;;;;;21.70;42.30;;;;;;5071551;28;19921;-70
2023/01/10 02:26:41;;;;;;;;;;;21.70;42.20;;;;;;5072726;28;19924;-66
2023/01/10 02:29:15;;;;;;;;;;;21.80;41.90;;;;;;5071666;28;19928;-66
2023/01/10 02:32:01;;;;;;;;;;;21.80;41.90;;;;;;5073112;28;19931;-66
2023/01/10 02:34:32;;;;;;;;;;;21.80;41.80;;;;;;5072472;28;19927;-70
2023/01/10 02:37:05;;;;;;;;;;;21.80;41.70;;;;;;5072790;28;19928;-66
2023/01/10 02:39:35;;;;;;;;;;;21.90;41.80;;;;;;5071311;28;20391;-66
2023/01/10 02:42:10;;;;;;;;;;;21.80;41.80;;;;;;5071585;28;19993;-66
2023/01/10 02:44:56;;;;;;;;;;;21.80;42.00;;;;;;5072693;28;19921;-69
2023/01/10 02:47:21;;;;;;;;;;;21.60;42.00;;;;;;5072359;28;19921;-66
2023/01/10 02:49:48;;;;;;;;;;;21.60;42.10;;;;;;5071086;28;19932;-66
2023/01/10 02:52:18;;;;;;;;;;;21.60;42.20;;;;;;5071475;28;19920;-67
2023/01/10 02:54:44;;;;;;;;;;;21.50;42.20;;;;;;5072701;28;19967;-66
2023/01/10 03:00:09;;;;;;;;;;;21.40;42.40;;;;;;5110227;27;19912;-69
2023/01/10 03:05:26;;;;;;;;;;;21.30;42.50;;;;;;5090281;28;19918;-66
2023/01/10 03:07:54;;;;;;;;;;;21.40;42.60;;;;;;5088602;28;19920;-66
2023/01/10 03:13:03;;;;;;;;;;;21.40;42.70;;;;;;5089995;28;20367;-65
2023/01/10 03:15:31;;;;;;;;;;;21.30;42.50;;;;;;5088509;28;19920;-66
2023/01/10 03:18:01;;;;;;;;;;;21.30;42.70;;;;;;5088784;28;19921;-65
2023/01/10 03:20:28;;;;;;;;;;;21.10;42.80;;;;;;5088804;28;19978;-66
2023/01/10 03:22:54;;;;;;;;;;;21.00;42.90;;;;;;5088845;28;20314;-65
2023/01/10 03:25:22;;;;;;;;;;;21.00;43.10;;;;;;5088410;28;19920;-66
2023/01/10 03:27:51;;;;;;;;;;;21.00;43.10;;;;;;5088752;28;19924;-66
2023/01/10 03:33:00;;;;;;;;;;;21.10;43.10;;;;;;5110318;27;19919;-69
2023/01/10 03:35:33;;;;;;;;;;;21.20;42.90;;;;;;5108846;28;20375;-65
2023/01/10 03:38:05;;;;;;;;;;;21.20;42.70;;;;;;5109401;28;20378;-65
2023/01/10 03:40:35;;;;;;;;;;;21.30;42.60;;;;;;5108793;28;19924;-65
2023/01/10 03:45:43;;;;;;;;;;;21.40;42.40;;;;;;5089911;28;19919;-65
2023/01/10 03:48:10;;;;;;;;;;;21.50;42.30;;;;;;5089875;28;20326;-65
2023/01/10 03:50:36;;;;;;;;;;;21.50;42.10;;;;;;5088547;28;19920;-65
2023/01/10 03:53:02;;;;;;;;;;;21.60;42.00;;;;;;5088754;28;19924;-68
2023/01/10 03:55:28;;;;;;;;;;;21.60;42.00;;;;;;5088424;28;19921;-65
2023/01/10 03:57:54;;;;;;;;;;;21.60;41.80;;;;;;5088585;28;19966;-65
2023/01/10 04:00:19;;;;;;;;;;;21.70;41.90;;;;;;5088291;28;20418;-65
2023/01/10 04:02:45;;;;;;;;;;;21.60;41.80;;;;;;5088603;28;20011;-65
2023/01/10 04:05:11;;;;;;;;;;;21.60;41.90;;;;;;5089323;28;19928;-68
2023/01/10 04:07:36;;;;;;;;;;;21.60;41.90;;;;;;5089570;28;19927;-65
2023/01/10 04:10:03;;;;;;;;;;;21.60;42.00;;;;;;5089457;28;19928;-65
2023/01/10 04:12:28;;;;;;;;;;;21.60;42.00;;;;;;5087996;28;19970;-65
2023/01/10 04:14:54;;;;;;;;;;;21.50;42.80;;;;;;5089492;28;19920;-65
2023/01/10 04:17:19;;;;;;;;;;;21.50;42.10;;;;;;5087872;28;19952;-65
2023/01/10 04:19:45;;;;;;;;;;;21.50;42.20;;;;;;5088285;28;20019;-65
2023/01/10 04:22:11;;;;;;;;;;;21.50;42.30;;;;;;5088193;28;19979;-65
2023/01/10 04:24:37;;;;;;;;;;;21.40;42.30;;;;;;5089134;28;19924;-65
2023/01/10 04:27:02;;;;;;;;;;;21.40;42.40;;;;;;5088081;28;20013;-65
2023/01/10 04:29:28;;;;;;;;;;;21.50;42.40;;;;;;5087631;28;19931;-65
2023/01/10 04:31:54;;;;;;;;;;;21.40;42.40;;;;;;5087981;28;19920;-68
2023/01/10 04:34:20;;;;;;;;;;;21.40;42.40;;;;;;5087824;28;20392;-65
2023/01/10 04:36:46;;;;;;;;;;;21.40;42.40;;;;;;5087743;28;20215;-65
2023/01/10 04:39:11;;;;;;;;;;;21.40;42.50;;;;;;5088986;28;19959;-64
2023/01/10 04:41:37;;;;;;;;;;;21.40;42.60;;;;;;5087449;28;19920;-64
2023/01/10 04:44:03;;;;;;;;;;;21.40;42.50;;;;;;5095551;28;19930;-65
2023/01/10 04:46:28;;;;;;;;;;;21.30;42.40;;;;;;5109205;28;19924;-64
2023/01/10 04:48:54;;;;;;;;;;;21.40;42.40;;;;;;5108085;28;20138;-68
2023/01/10 04:51:20;;;;;;;;;;;21.50;42.60;;;;;;5091124;28;19920;-65
2023/01/10 04:53:46;;;;;;;;;;;21.40;42.40;;;;;;5090584;28;19943;-68
2023/01/10 04:56:19;;;;;;;;;;;21.40;42.50;;;;;;5100081;28;20019;-64
2023/01/10 04:58:45;;;;;;;;;;;21.50;42.50;;;;;;5095258;28;20306;-64
2023/01/10 05:01:12;;;;;;;;;;;21.40;42.30;;;;;;5077385;28;19920;-64
2023/01/10 05:03:38;;;;;;;;;;;21.40;43.20;;;;;;5076930;28;19924;-68
2023/01/10 05:06:04;;;;;;;;;;;21.40;42.20;;;;;;5093913;28;20014;-64
2023/01/10 05:08:29;;;;;;;;;;;21.40;42.30;;;;;;5095160;28;19920;-68
2023/01/10 05:10:55;;;;;;;;;;;21.50;42.30;;;;;;5077248;28;20379;-64
2023/01/10 05:13:20;;;;;;;;;;;21.50;42.30;;;;;;5076765;28;19926;-64
2023/01/10 05:15:46;;;;;;;;;;;21.60;42.20;;;;;;5076828;28;19923;-64
2023/01/10 05:18:11;;;;;;;;;;;21.60;42.10;;;;;;5076999;28;20053;-64
2023/01/10 05:20:37;;;;;;;;;;;21.60;42.20;;;;;;5094845;28;20014;-64
2023/01/10 05:23:02;;;;;;;;;;;21.60;42.00;;;;;;5094779;28;19927;-64
2023/01/10 05:25:28;;;;;;;;;;;21.70;41.90;;;;;;5094825;28;19932;-68
2023/01/10 05:27:54;;;;;;;;;;;21.80;41.90;;;;;;5093656;28;19920;-65
2023/01/10 05:30:19;;;;;;;;;;;21.80;41.80;;;;;;5076406;28;20349;-64
2023/01/10 05:32:45;;;;;;;;;;;21.90;41.70;;;;;;5094605;28;19967;-68
2023/01/10 05:35:10;;;;;;;;;;;21.90;41.60;;;;;;5076707;28;19973;-64
2023/01/10 05:37:36;;;;;;;;;;;21.90;41.60;;;;;;5076413;28;19927;-64
2023/01/10 05:40:02;;;;;;;;;;;21.90;41.50;;;;;;5094443;28;19931;-68
2023/01/10 05:42:27;;;;;;;;;;;21.90;41.40;;;;;;5076538;28;19920;-64
2023/01/10 05:44:53;;;;;;;;;;;22.00;41.50;;;;;;5075869;28;19924;-64
2023/01/10 05:47:18;;;;;;;;;;;22.00;41.50;;;;;;5059612;28;20532;-68
2023/01/10 05:49:44;;;;;;;;;;;22.00;41.50;;;;;;5076062;28;19973;-64
2023/01/10 05:52:09;;;;;;;;;;;22.00;41.40;;;;;;5094544;28;19920;-65
2023/01/10 05:54:35;;;;;;;;;;;22.00;41.40;;;;;;5076398;28;19974;-64
2023/01/10 05:57:00;;;;;;;;;;;22.00;41.50;;;;;;5076379;28;20314;-68
2023/01/10 05:59:28;;;;;;;;;;;22.00;41.50;;;;;;5094052;28;20326;-64
2023/01/10 06:01:54;;;;;;;;;;;21.90;41.40;;;;;;5094098;28;19921;-64
2023/01/10 06:04:19;;;;;;;;;;;21.90;41.40;;;;;;5075958;28;19924;-64
2023/01/10 06:06:45;;;;;;;;;;;21.90;41.50;;;;;;5075610;28;20325;-65
2023/01/10 06:09:10;;;;;;;;;;;21.90;41.50;;;;;;5075250;28;20460;-64
2023/01/10 06:11:37;;;;;;;;;;;21.90;41.40;;;;;;5075756;28;20012;-64
2023/01/10 06:14:03;;;;;;;;;;;21.80;41.50;;;;;;5093896;28;19970;-64
2023/01/10 06:16:29;;;;;;;;;;;21.80;41.60;;;;;;5075550;28;19963;-64
2023/01/10 06:18:54;;;;;;;;;;;21.80;41.60;;;;;;5075897;28;19926;-66
2023/01/10 06:21:20;;;;;;;;;;;21.80;41.60;;;;;;5076065;28;19920;-68
2023/01/10 06:23:45;;;;;;;;;;;21.80;41.60;;;;;;5075410;28;19931;-64
2023/01/10 06:26:11;;;;;;;;;;;21.70;41.50;;;;;;5075377;28;19982;-68
2023/01/10 06:28:37;;;;;;;;;;;21.80;41.60;;;;;;5075456;28;19920;-65
2023/01/10 06:31:02;;;;;;;;;;;21.80;41.60;;;;;;5093259;28;19969;-65
2023/01/10 06:33:28;;;;;;;;;;;21.80;42.40;;;;;;5092276;28;20330;-65
2023/01/10 06:35:53;;;;;;;;;;;21.80;41.60;;;;;;5093377;28;20134;-64
2023/01/10 06:38:19;;;;;;;;;;;21.70;41.50;;;;;;5075633;28;19920;-68
2023/01/10 06:40:44;;;;;;;;;;;21.80;41.60;;;;;;5093250;28;19920;-65
2023/01/10 06:43:10;;;;;;;;;;;21.80;41.60;;;;;;5093292;28;19920;-65
2023/01/10 06:45:35;;;;;;;;;;;21.80;41.50;;;;;;5076519;28;20003;-64
2023/01/10 06:48:01;;;;;;;;;;;21.80;41.60;;;;;;5088835;28;19932;-66
2023/01/10 06:50:27;;;;;;;;;;;21.70;42.30;;;;;;5091117;28;19916;-64
2023/01/10 06:52:56;;;;;;;;;;;21.60;42.50;;;;;;5081543;28;20379;-67
2023/01/10 06:55:22;;;;;;;;;;;21.50;42.60;;;;;;5054623;28;19925;-64
2023/01/10 06:57:47;;;;;;;;;;;21.40;42.60;;;;;;5087101;28;19928;-64
2023/01/10 07:00:13;;;;;;;;;;;21.50;42.80;;;;;;5088197;28;19920;-65
2023/01/10 07:02:38;;;;;;;;;;;21.40;43.10;;;;;;5051229;28;19924;-64
2023/01/10 07:05:04;;;;;;;;;;;21.50;43.00;;;;;;5074319;28;19939;-64
2023/01/10 07:07:30;;;;;;;;;;;21.40;43.00;;;;;;5069632;28;19920;-64
2023/01/10 07:09:55;;;;;;;;;;;21.40;43.10;;;;;;5084970;28;19924;-66
2023/01/10 07:12:21;;;;;;;;;;;21.40;43.10;;;;;;5068495;28;20058;-64
2023/01/10 07:14:46;;;;;;;;;;;21.50;43.00;;;;;;5086996;28;19962;-63
2023/01/10 07:17:12;;;;;;;;;;;21.60;43.00;;;;;;5087762;28;19978;-64
2023/01/10 07:19:37;;;;;;;;;;;21.60;42.80;;;;;;5071478;28;20372;-65
2023/01/10 07:22:03;;;;;;;;;;;21.60;43.00;;;;;;5069206;28;20491;-65
2023/01/10 07:24:28;;;;;;;;;;;21.70;43.00;;;;;;5072835;28;20392;-65
2023/01/10 07:26:55;;;;;;;;;;;21.80;42.70;;;;;;5075083;28;19984;-64
2023/01/10 07:29:20;;;;;;;;;;;21.90;42.80;;;;;;5070433;28;19966;-66
2023/01/10 07:31:46;;;;;;;;;;;21.90;42.90;;;;;;5057709;28;19932;-62
2023/01/10 07:34:11;;;;;;;;;;;21.90;42.20;;;;;;5057456;28;20001;-63
2023/01/10 07:36:37;;;;;;;;;;;22.00;42.00;;;;;;5057071;28;19927;-64
2023/01/10 07:39:02;;;;;;;;;;;21.90;42.20;;;;;;5057380;28;19920;-64
2023/01/10 07:41:28;;;;;;;;;;;21.90;42.40;;;;;;5054973;28;20460;-66
2023/01/10 07:43:53;;;;;;;;;;;21.80;42.40;;;;;;5050139;28;19935;-67
2023/01/10 07:46:19;;;;;;;;;;;21.80;42.50;;;;;;5072499;28;19995;-63
2023/01/10 07:48:45;;;;;;;;;;;21.80;42.60;;;;;;5053827;28;20011;-63
2023/01/10 07:51:11;;;;;;;;;;;21.80;42.60;;;;;;5070674;28;19920;-62
2023/01/10 07:53:37;;;;;;;;;;;21.60;42.70;;;;;;5072893;28;20284;-62
2023/01/10 07:56:03;;;;;;;;;;;21.50;43.00;;;;;;5060132;28;20384;-63
2023/01/10 07:58:29;;;;;;;;;;;21.40;43.10;;;;;;5070653;28;19928;-64
2023/01/10 08:00:56;;;;;;;;;;;21.30;43.50;;;;;;5065893;28;20588;-69
2023/01/10 08:03:23;;;;;;;;;;;21.20;43.70;;;;;;5066577;28;19929;-64
2023/01/10 08:05:49;;;;;;;;;;;21.10;43.90;;;;;;5066518;28;19939;-64
2023/01/10 08:08:16;;;;;;;;;;;21.10;44.20;;;;;;5051311;28;19925;-65
2023/01/10 08:10:41;;;;;;;;;;;20.90;44.20;;;;;;5051830;28;20342;-64
2023/01/10 08:13:07;;;;;;;;;;;21.00;44.40;;;;;;5072681;28;19924;-65
2023/01/10 08:15:32;;;;;;;;;;;21.10;44.50;;;;;;5070073;28;19925;-65
2023/01/10 08:17:59;;;;;;;;;;;21.20;44.20;;;;;;5069624;28;19935;-68
2023/01/10 08:20:24;;;;;;;;;;;21.40;44.00;;;;;;5070064;28;20359;-68
2023/01/10 08:22:50;;;;;;;;;;;21.60;43.70;;;;;;5068758;28;20035;-68
2023/01/10 08:25:15;;;;;;;;;;;21.80;43.40;;;;;;5071637;28;19924;-67
2023/01/10 08:27:41;;;;;;;;;;;21.80;43.20;;;;;;5073443;28;19928;-66
2023/01/10 08:30:07;;;;;;;;;;;21.90;43.20;;;;;;5074646;28;19962;-66
2023/01/10 08:32:32;;;;;;;;;;;21.90;43.00;;;;;;5077477;28;19947;-66
2023/01/10 08:34:58;;;;;;;;;;;21.90;42.90;;;;;;5060331;28;20282;-66
2023/01/10 08:37:23;;;;;;;;;;;22.00;42.90;;;;;;5074594;28;19921;-65
2023/01/10 08:39:49;;;;;;;;;;;22.00;42.90;;;;;;5073818;28;19970;-66
2023/01/10 08:42:16;;;;;;;;;;;22.00;42.80;;;;;;5078269;28;20015;-66
2023/01/10 08:44:42;;;;;;;;;;;22.00;42.80;;;;;;5056776;28;19964;-66
2023/01/10 08:47:07;;;;;;;;;;;21.90;42.80;;;;;;5057135;28;19958;-66
2023/01/10 08:49:33;;;;;;;;;;;21.90;43.00;;;;;;5063064;28;19935;-71
2023/01/10 08:52:00;;;;;;;;;;;21.70;43.20;;;;;;5072400;28;19933;-71
2023/01/10 08:54:25;;;;;;;;;;;21.60;43.40;;;;;;5073683;28;20034;-68
2023/01/10 08:56:51;;;;;;;;;;;21.60;43.50;;;;;;5077851;28;20014;-65
2023/01/10 08:59:16;;;;;;;;;;;21.40;43.60;;;;;;5059300;28;20007;-69
2023/01/10 09:01:42;;;;;;;;;;;21.30;43.80;;;;;;5062347;28;19935;-71
2023/01/10 09:04:08;;;;;;;;;;;21.20;44.10;;;;;;5061138;28;19932;-68
2023/01/10 09:06:34;;;;;;;;;;;21.20;44.20;;;;;;5072246;28;20277;-69
2023/01/10 09:09:00;;;;;;;;;;;21.20;44.30;;;;;;5055630;28;19924;-68
2023/01/10 09:11:25;;;;;;;;;;;21.20;44.20;;;;;;5058431;28;19950;-68
2023/01/10 09:13:51;;;;;;;;;;;21.30;44.20;;;;;;5060753;28;20358;-67
2023/01/10 09:16:17;;;;;;;;;;;21.30;44.20;;;;;;5055255;28;19925;-69
2023/01/10 09:18:42;;;;;;;;;;;21.30;44.10;;;;;;5075755;28;20287;-69
2023/01/10 09:21:08;;;;;;;;;;;21.30;44.00;;;;;;5060218;28;19924;-66
2023/01/10 09:23:34;;;;;;;;;;;21.20;44.10;;;;;;5059962;28;19924;-68
2023/01/10 09:26:00;;;;;;;;;;;21.20;44.20;;;;;;5059608;28;19924;-69
2023/01/10 09:28:25;;;;;;;;;;;21.30;44.30;;;;;;5058894;28;19924;-67
2023/01/10 09:30:51;;;;;;;;;;;21.30;44.10;;;;;;5062362;28;19924;-68
2023/01/10 09:33:17;;;;;;;;;;;21.40;43.90;;;;;;5055662;28;20009;-67
2023/01/10 09:35:43;;;;;;;;;;;21.50;44.10;;;;;;5049539;28;19943;-67
2023/01/10 09:38:11;;;;;;;;;;;21.50;43.90;;;;;;5049251;28;19920;-71
2023/01/10 09:40:56;;;;;;;;;;;21.60;43.90;;;;;;5074578;28;19968;-67
2023/01/10 09:43:42;;;;;;;;;;;21.70;43.70;;;;;;5076895;28;20333;-71
2023/01/10 09:46:13;;;;;;;;;;;21.70;43.50;;;;;;5058067;28;19928;-68
2023/01/10 09:48:58;;;;;;;;;;;21.80;43.50;;;;;;5060013;28;19920;-71
2023/01/10 09:51:44;;;;;;;;;;;21.80;43.50;;;;;;5053299;28;19923;-68
2023/01/10 09:54:11;;;;;;;;;;;21.70;43.40;;;;;;5074611;28;19959;-68
2023/01/10 09:56:37;;;;;;;;;;;21.60;43.40;;;;;;5070641;28;20518;-67
2023/01/10 09:59:04;;;;;;;;;;;21.50;43.60;;;;;;5051138;28;19924;-70
2023/01/10 10:01:35;;;;;;;;;;;21.60;43.70;;;;;;5051367;28;19928;-68
2023/01/10 10:04:20;;;;;;;;;;;21.50;43.60;;;;;;5053709;28;19928;-68
2023/01/10 10:06:47;;;;;;;;;;;21.40;43.70;;;;;;5062660;28;19920;-67
2023/01/10 10:09:15;;;;;;;;;;;21.50;44.10;;;;;;5072451;28;19928;-68
2023/01/10 10:11:51;;;;;;;;;;;21.40;43.90;;;;;;5054759;28;19920;-68
2023/01/10 10:17:18;;;;;;;;;;;21.50;44.10;;;;;;5071905;27;19920;-68
2023/01/10 10:20:03;;;;;;;;;;;21.60;44.00;;;;;;5055559;28;20628;-73
2023/01/10 10:25:16;;;;;;;;;;;21.70;43.80;;;;;;5085923;27;19925;-67
2023/01/10 10:27:51;;;;;;;;;;;21.60;43.80;;;;;;5073038;28;19924;-67
2023/01/10 10:30:22;;;;;;;;;;;21.60;44.00;;;;;;5075973;28;20292;-73
2023/01/10 10:33:08;;;;;;;;;;;21.50;43.90;;;;;;5074952;28;20651;-69
2023/01/10 10:35:37;;;;;;;;;;;21.60;44.00;;;;;;5074396;28;19932;-68
2023/01/10 10:38:07;;;;;;;;;;;21.60;44.00;;;;;;5078407;28;20331;-65
2023/01/10 10:40:36;;;;;;;;;;;21.60;44.00;;;;;;5076477;28;19920;-68
2023/01/10 10:43:10;;;;;;;;;;;21.50;44.10;;;;;;5073479;28;19931;-67
2023/01/10 10:45:40;;;;;;;;;;;21.50;44.30;;;;;;5078445;28;19920;-68
2023/01/10 10:53:38;;;;;;;;;;;21.40;44.30;;;;;;5076859;27;20402;-65
2023/01/10 10:56:05;;;;;;;;;;;21.50;44.30;;;;;;5074591;28;19929;-66
2023/01/10 10:58:31;;;;;;;;;;;21.50;44.30;;;;;;5073139;28;19940;-66
2023/01/10 11:00:57;;;;;;;;;;;21.60;44.40;;;;;;5066458;28;19928;-66
2023/01/10 11:06:02;;;;;;;;;;;21.60;44.30;;;;;;5086790;27;1929639;-73
2023/01/10 11:08:29;;;;;;;;;;;21.50;44.20;;;;;;5131906;27;20370;-70
2023/01/10 11:10:55;;;;;;;;;;;21.40;44.30;;;;;;5131597;27;19972;-67
2023/01/10 11:13:41;;;;;;;;;;;21.50;44.40;;;;;;5131898;27;20450;-68
2023/01/10 11:16:07;;;;;;;;;;;21.50;44.40;;;;;;5137141;27;19930;-65
2023/01/10 11:18:33;;;;;;;;;;;21.50;44.40;;;;;;5148129;27;20444;-66
2023/01/10 11:29:06;;;;;;;;;;;21.50;44.10;;;;;;5092323;27;1863699;-67
2023/01/10 11:31:32;;;;;;;;;;;21.40;44.00;;;;;;5140097;27;19976;-66
2023/01/10 11:33:58;;;;;;;;;;;21.30;44.30;;;;;;5139431;27;19934;-66
2023/01/10 11:36:23;;;;;;;;;;;21.20;44.20;;;;;;5135931;27;19919;-66
2023/01/10 11:39:04;;;;;;;;;;;21.10;44.30;;;;;;5136470;27;19963;-70
2023/01/10 11:41:33;;;;;;;;;;;21.20;44.70;;;;;;5132303;27;19923;-66
2023/01/10 11:44:15;;;;;;;;;;;21.30;44.50;;;;;;5134276;27;19919;-65
2023/01/10 11:46:43;;;;;;;;;;;21.40;44.30;;;;;;5124944;27;19922;-66
2023/01/10 11:49:13;;;;;;;;;;;21.40;44.10;;;;;;5135119;27;20018;-69
2023/01/10 11:51:43;;;;;;;;;;;21.50;44.00;;;;;;5145556;27;19923;-62
2023/01/10 11:54:11;;;;;;;;;;;21.50;44.00;;;;;;5140869;27;19920;-69
2023/01/10 11:56:38;;;;;;;;;;;21.50;43.90;;;;;;5127245;27;20403;-74
2023/01/10 11:59:08;;;;;;;;;;;21.50;43.80;;;;;;5130231;27;20323;-71
2023/01/10 12:01:53;;;;;;;;;;;21.40;43.90;;;;;;5131387;27;19923;-64
2023/01/10 12:04:20;;;;;;;;;;;21.50;43.80;;;;;;5146398;27;20538;-69
2023/01/10 12:06:47;;;;;;;;;;;21.50;43.60;;;;;;5129671;27;19927;-68
2023/01/10 12:09:31;;;;;;;;;;;21.50;43.50;;;;;;5148041;27;19934;-65
2023/01/10 12:12:00;;;;;;;;;;;21.60;43.50;;;;;;5126182;27;19923;-68
2023/01/10 12:14:26;;;;;;;;;;;21.70;43.30;;;;;;5149587;27;19964;-65
2023/01/10 12:16:58;;;;;;;;;;;21.80;43.30;;;;;;5137259;27;19927;-68
2023/01/10 12:19:23;;;;;;;;;;;21.80;43.20;;;;;;5144917;27;20034;-67
2023/01/10 12:21:50;;;;;;;;;;;21.80;43.20;;;;;;5127878;27;20018;-65
2023/01/10 12:24:21;;;;;;;;;;;21.90;43.20;;;;;;5145272;27;19928;-69
2023/01/10 12:26:49;;;;;;;;;;;21.90;43.20;;;;;;5131787;27;19919;-66
2023/01/10 12:29:18;;;;;;;;;;;21.90;43.20;;;;;;5109569;27;19927;-70
2023/01/10 12:31:44;;;;;;;;;;;21.80;43.10;;;;;;5129205;27;19925;-67
2023/01/10 12:34:14;;;;;;;;;;;21.80;43.20;;;;;;5133085;27;19923;-74
2023/01/10 12:36:46;;;;;;;;;;;21.80;43.20;;;;;;5153441;27;20331;-72
2023/01/10 12:39:15;;;;;;;;;;;21.90;43.30;;;;;;5128197;27;19931;-69
2023/01/10 12:44:22;;;;;;;;;;;21.90;43.20;;;;;;5063989;28;19920;-70
2023/01/10 12:46:50;;;;;;;;;;;21.80;43.10;;;;;;5053431;28;19982;-67
2023/01/10 12:49:21;;;;;;;;;;;21.70;43.20;;;;;;5051105;28;19928;-71
2023/01/10 12:51:48;;;;;;;;;;;21.70;44.10;;;;;;5041811;28;20678;-66
2023/01/10 12:54:16;;;;;;;;;;;21.60;43.40;;;;;;5045518;28;19943;-66
2023/01/10 12:56:42;;;;;;;;;;;21.60;43.50;;;;;;5046528;28;20035;-69
2023/01/10 12:59:16;;;;;;;;;;;21.50;43.50;;;;;;5067102;28;19932;-69
2023/01/10 13:01:44;;;;;;;;;;;21.50;43.70;;;;;;5063847;28;19939;-64
2023/01/10 13:04:11;;;;;;;;;;;21.50;43.70;;;;;;5046394;28;20320;-66
2023/01/10 13:06:38;;;;;;;;;;;21.60;43.70;;;;;;5047547;28;20026;-67
2023/01/10 13:09:06;;;;;;;;;;;21.60;43.70;;;;;;5050985;28;19925;-65
2023/01/10 13:11:34;;;;;;;;;;;21.50;43.60;;;;;;5045929;28;19921;-66
2023/01/10 13:14:01;;;;;;;;;;;21.50;43.90;;;;;;5047551;28;20039;-74
2023/01/10 13:16:46;;;;;;;;;;;21.50;43.80;;;;;;5042962;28;19921;-71
2023/01/10 13:22:13;;;;;;;;;;;21.50;43.80;;;;;;5075266;27;19946;-71
2023/01/10 13:24:38;;;;;;;;;;;21.60;43.90;;;;;;5052862;28;20826;-73
2023/01/10 13:27:04;;;;;;;;;;;21.70;43.90;;;;;;5049248;28;20007;-73
2023/01/10 13:29:36;;;;;;;;;;;21.70;43.80;;;;;;5051173;28;19928;-71
2023/01/10 13:32:14;;;;;;;;;;;21.70;43.80;;;;;;5050447;28;19974;-73
2023/01/10 13:34:40;;;;;;;;;;;21.70;43.80;;;;;;5054605;28;19956;-71
2023/01/10 13:37:25;;;;;;;;;;;21.80;43.80;;;;;;5056384;28;20019;-70
2023/01/10 13:39:54;;;;;;;;;;;21.80;43.80;;;;;;5049675;28;19936;-71
2023/01/10 13:55:55;;;;;;;;;;;22.10;43.70;;;;;;5016186;28;19928;-75
2023/01/10 14:03:48;;;;;;;;;;;22.00;43.90;;;;;;5068972;28;20509;-69
2023/01/10 14:06:18;;;;;;;;;;;21.90;44.10;;;;;;5102106;28;20568;-67
2023/01/10 14:08:48;;;;;;;;;;;21.90;44.40;;;;;;5070375;28;19978;-65
2023/01/10 14:11:14;;;;;;;;;;;21.70;44.50;;;;;;5067013;28;19935;-65
2023/01/10 14:13:45;;;;;;;;;;;21.60;44.40;;;;;;5071927;28;19920;-65
2023/01/10 14:16:31;;;;;;;;;;;21.50;44.40;;;;;;5100271;28;19920;-66
2023/01/10 14:18:56;;;;;;;;;;;21.30;44.60;;;;;;5071912;28;20638;-65
2023/01/10 14:21:24;;;;;;;;;;;21.30;44.60;;;;;;5106487;28;19931;-66
2023/01/10 14:23:51;;;;;;;;;;;21.30;44.50;;;;;;5074381;28;19925;-65
2023/01/10 14:26:22;;;;;;;;;;;21.30;44.40;;;;;;5077894;28;19931;-65
2023/01/10 14:28:48;;;;;;;;;;;21.40;44.30;;;;;;5107454;28;19921;-65
2023/01/10 14:33:57;;;;;;;;;;;21.40;44.00;;;;;;5069775;28;19923;-65
2023/01/10 14:36:28;;;;;;;;;;;21.40;43.90;;;;;;5060885;28;19940;-65
2023/01/10 14:38:57;;;;;;;;;;;21.40;43.80;;;;;;5070963;28;19924;-65
2023/01/10 14:41:33;;;;;;;;;;;21.50;43.70;;;;;;5055600;28;19966;-65
2023/01/10 14:44:01;;;;;;;;;;;21.50;43.60;;;;;;5059236;28;20024;-66
2023/01/10 14:46:46;;;;;;;;;;;21.50;43.40;;;;;;5059165;28;19921;-66
2023/01/10 14:49:28;;;;;;;;;;;21.60;43.40;;;;;;5057923;28;19963;-65
2023/01/10 14:51:59;;;;;;;;;;;21.60;43.30;;;;;;5057648;28;19936;-66
2023/01/10 14:54:28;;;;;;;;;;;21.60;43.20;;;;;;5062202;28;19931;-71
2023/01/10 14:56:53;;;;;;;;;;;21.60;43.10;;;;;;5076003;28;19924;-67
2023/01/10 14:59:27;;;;;;;;;;;21.70;43.10;;;;;;5058900;28;19939;-70
2023/01/10 15:01:55;;;;;;;;;;;21.70;43.10;;;;;;5069543;28;19927;-65
2023/01/10 15:04:22;;;;;;;;;;;21.70;43.20;;;;;;5054670;28;19927;-70
2023/01/10 15:09:31;;;;;;;;;;;21.60;43.10;;;;;;5179423;27;19941;-65
2023/01/10 15:11:58;;;;;;;;;;;21.70;43.10;;;;;;5148882;27;19919;-65
2023/01/10 15:14:25;;;;;;;;;;;21.60;43.10;;;;;;5148462;27;19919;-65
2023/01/10 15:16:52;;;;;;;;;;;21.60;43.10;;;;;;5128354;27;19919;-66
2023/01/10 15:19:19;;;;;;;;;;;21.50;43.20;;;;;;5122634;27;19934;-66
2023/01/10 15:21:45;;;;;;;;;;;21.40;43.20;;;;;;5132548;27;19919;-71
2023/01/10 15:24:32;;;;;;;;;;;21.30;43.20;;;;;;5156888;27;19923;-66
2023/01/10 15:27:05;;;;;;;;;;;21.30;43.40;;;;;;5153672;27;19927;-66
2023/01/10 15:29:31;;;;;;;;;;;21.10;43.50;;;;;;5134748;27;20346;-66